Time;durP1;ratioP1;P1;durP2;ratioP2;P2;SDS_P1;SDS_P2;PMS_P1;PMS_P2;Temp;Humidity;BMP_temperature;BMP_pressure;BME280_temperature;BME280_humidity;BME280_pressure;Samples;Min_cycle;Max_cycle;Signal;HPM_P1;HPM_P2
2022/01/01 00:00:14;;;;;;;32.40;20.90;;;12.50;99.90;;;;;;4946287;29;20473;-47
2022/01/01 00:02:40;;;;;;;34.47;19.77;;;12.50;99.90;;;;;;4938969;29;20469;-48
2022/01/01 00:05:08;;;;;;;25.17;14.60;;;12.50;99.90;;;;;;4939123;29;20461;-45
2022/01/01 00:07:35;;;;;;;23.37;15.57;;;12.50;99.90;;;;;;4946308;29;20479;-51
2022/01/01 00:10:05;;;;;;;22.70;13.33;;;12.50;99.90;;;;;;4950454;29;20457;-50
2022/01/01 00:12:31;;;;;;;21.17;12.63;;;12.50;99.90;;;;;;4942430;29;20473;-45
2022/01/01 00:14:58;;;;;;;18.70;11.33;;;12.50;99.90;;;;;;4938353;29;20489;-47
2022/01/01 00:17:25;;;;;;;21.17;13.30;;;12.60;99.90;;;;;;4938896;29;20473;-48
2022/01/01 00:19:51;;;;;;;18.93;12.20;;;12.60;99.90;;;;;;4938619;29;20525;-47
2022/01/01 00:22:19;;;;;;;19.53;12.47;;;12.60;99.90;;;;;;4938040;29;20429;-45
2022/01/01 00:24:46;;;;;;;23.50;13.23;;;12.60;99.90;;;;;;4938388;29;20465;-47
2022/01/01 00:27:13;;;;;;;22.97;12.20;;;12.60;99.90;;;;;;4953364;29;20539;-49
2022/01/01 00:29:40;;;;;;;16.00;10.80;;;12.60;99.90;;;;;;4957761;29;20448;-50
2022/01/01 00:32:07;;;;;;;13.47;10.00;;;12.60;99.90;;;;;;4958295;28;20514;-46
2022/01/01 00:34:35;;;;;;;12.67;8.60;;;12.60;99.90;;;;;;4957642;29;20498;-45
2022/01/01 00:37:02;;;;;;;10.90;9.40;;;12.60;99.90;;;;;;4957823;29;20452;-46
2022/01/01 00:39:28;;;;;;;12.17;7.90;;;12.60;99.90;;;;;;4958165;28;20500;-48
2022/01/01 00:41:55;;;;;;;11.87;8.80;;;12.60;99.90;;;;;;4958205;29;20484;-46
2022/01/01 00:44:24;;;;;;;13.97;8.67;;;12.60;99.90;;;;;;4958262;28;20804;-48
2022/01/01 00:46:51;;;;;;;17.73;9.67;;;12.60;99.90;;;;;;4959077;29;20504;-48
2022/01/01 00:49:17;;;;;;;13.20;8.67;;;12.60;99.90;;;;;;4958222;28;20487;-47
2022/01/01 00:51:44;;;;;;;9.67;6.73;;;12.60;99.90;;;;;;4957868;28;20541;-45
2022/01/01 00:54:10;;;;;;;13.63;6.77;;;12.60;99.90;;;;;;4958495;29;20456;-50
2022/01/01 00:56:38;;;;;;;10.90;8.27;;;12.60;99.90;;;;;;4960269;29;20612;-52
2022/01/01 00:59:05;;;;;;;13.37;8.60;;;12.60;99.90;;;;;;4957852;29;20433;-44
2022/01/01 01:01:33;;;;;;;13.87;7.30;;;12.60;99.90;;;;;;4959193;29;20456;-49
2022/01/01 01:03:59;;;;;;;13.00;8.30;;;12.60;99.90;;;;;;4960186;29;20471;-46
2022/01/01 01:06:26;;;;;;;14.80;6.53;;;12.60;99.90;;;;;;4957510;29;20464;-46
2022/01/01 01:08:54;;;;;;;17.67;9.50;;;12.60;99.90;;;;;;4958127;29;20491;-47
2022/01/01 01:11:20;;;;;;;13.00;8.70;;;12.50;99.90;;;;;;4959670;29;20449;-48
2022/01/01 01:13:55;;;;;;;9.47;8.47;;;12.50;99.90;;;;;;4958082;29;20452;-47
2022/01/01 01:16:22;;;;;;;13.13;8.37;;;12.60;99.90;;;;;;4957208;28;20479;-50
2022/01/01 01:18:53;;;;;;;11.00;8.20;;;12.60;99.90;;;;;;4958835;29;20479;-52
2022/01/01 01:21:19;;;;;;;16.93;9.33;;;12.50;99.90;;;;;;4961406;29;20565;-47
2022/01/01 01:23:47;;;;;;;16.20;9.27;;;12.60;99.90;;;;;;4965880;28;20488;-51
2022/01/01 01:26:14;;;;;;;16.23;10.67;;;12.60;99.90;;;;;;4963053;29;20908;-50
2022/01/01 01:28:47;;;;;;;16.23;10.80;;;12.60;99.90;;;;;;4961334;29;20967;-50
2022/01/01 01:31:14;;;;;;;18.37;10.33;;;12.60;99.90;;;;;;4960595;29;20893;-50
2022/01/01 01:33:41;;;;;;;15.33;10.57;;;12.50;99.90;;;;;;4960663;29;20476;-48
2022/01/01 01:36:09;;;;;;;15.37;10.90;;;12.50;99.90;;;;;;4960747;28;20510;-51
2022/01/01 01:38:36;;;;;;;13.07;9.77;;;12.50;99.90;;;;;;4960350;29;20452;-46
2022/01/01 01:41:04;;;;;;;17.20;10.13;;;12.50;99.90;;;;;;4960087;29;20555;-48
2022/01/01 01:43:31;;;;;;;13.27;8.40;;;12.50;99.90;;;;;;4960582;29;20514;-49
2022/01/01 01:46:03;;;;;;;14.20;8.70;;;12.50;99.90;;;;;;4959999;29;20518;-48
2022/01/01 01:48:30;;;;;;;12.33;7.57;;;12.50;99.90;;;;;;4960631;29;20476;-48
2022/01/01 01:50:57;;;;;;;10.57;8.20;;;12.50;99.90;;;;;;4960560;29;20514;-50
2022/01/01 01:53:25;;;;;;;13.23;8.43;;;12.40;99.90;;;;;;4962863;29;20455;-53
2022/01/01 01:55:52;;;;;;;13.77;8.90;;;12.40;99.90;;;;;;4962286;29;20448;-49
2022/01/01 01:58:19;;;;;;;9.97;7.80;;;12.40;99.90;;;;;;4962207;29;20480;-51
2022/01/01 02:03:26;;;;;;;12.67;8.53;;;12.40;99.90;;;;;;4962114;28;20527;-48
2022/01/01 02:05:54;;;;;;;10.50;6.63;;;12.40;99.90;;;;;;4962509;29;20448;-50
2022/01/01 02:08:21;;;;;;;9.07;7.30;;;12.40;99.90;;;;;;4962485;29;20995;-52
2022/01/01 02:10:51;;;;;;;10.00;7.40;;;12.40;99.90;;;;;;4962395;29;20532;-52
2022/01/01 02:13:24;;;;;;;8.73;6.03;;;12.30;99.90;;;;;;4962864;29;20764;-46
2022/01/01 02:16:13;;;;;;;7.50;5.93;;;12.30;99.90;;;;;;4962456;28;20625;-47
2022/01/01 02:18:43;;;;;;;10.10;6.20;;;12.40;99.90;;;;;;4962827;29;20460;-48
2022/01/01 02:21:11;;;;;;;14.43;6.37;;;12.40;99.90;;;;;;4962506;29;20892;-51
2022/01/01 02:23:42;;;;;;;11.00;7.20;;;12.40;99.90;;;;;;4962958;29;20471;-49
2022/01/01 02:26:12;;;;;;;18.13;7.67;;;12.40;99.90;;;;;;4962955;29;20433;-48
2022/01/01 02:28:41;;;;;;;16.07;7.70;;;12.40;99.90;;;;;;4963017;29;20535;-53
2022/01/01 02:31:08;;;;;;;16.60;7.27;;;12.30;99.90;;;;;;4963111;29;20460;-47
2022/01/01 02:33:35;;;;;;;14.97;7.50;;;12.40;99.90;;;;;;4964281;29;20453;-51
2022/01/01 02:36:02;;;;;;;9.30;5.87;;;12.40;99.90;;;;;;4963860;28;20463;-44
2022/01/01 02:38:32;;;;;;;12.50;6.60;;;12.40;99.90;;;;;;4964173;28;20924;-50
2022/01/01 02:40:59;;;;;;;9.10;6.07;;;12.40;99.90;;;;;;4964138;29;20476;-47
2022/01/01 02:43:25;;;;;;;10.07;7.90;;;12.40;99.90;;;;;;4964948;29;20448;-50
2022/01/01 02:45:52;;;;;;;11.43;7.30;;;12.40;99.90;;;;;;4964571;29;20452;-47
2022/01/01 02:48:19;;;;;;;8.70;6.20;;;12.30;99.90;;;;;;4964012;29;20468;-46
2022/01/01 02:50:46;;;;;;;14.63;6.80;;;12.40;99.90;;;;;;4964786;29;20463;-51
2022/01/01 02:53:13;;;;;;;8.53;6.77;;;12.40;99.90;;;;;;4964557;29;20574;-47
2022/01/01 02:55:41;;;;;;;12.60;7.53;;;12.40;99.90;;;;;;4963898;28;20464;-50
2022/01/01 02:58:08;;;;;;;10.40;7.17;;;12.40;99.90;;;;;;4964141;29;20456;-49
2022/01/01 03:00:35;;;;;;;7.57;5.87;;;12.40;99.90;;;;;;4963651;29;20453;-45
2022/01/01 03:03:01;;;;;;;10.47;7.00;;;12.40;99.90;;;;;;4962944;29;20452;-47
2022/01/01 03:05:30;;;;;;;13.80;6.73;;;12.40;99.90;;;;;;4962708;29;20479;-46
2022/01/01 03:07:57;;;;;;;16.40;6.87;;;12.40;99.90;;;;;;4962805;29;20453;-47
2022/01/01 03:10:23;;;;;;;9.00;5.90;;;12.40;99.90;;;;;;4962676;28;20858;-56
2022/01/01 03:12:53;;;;;;;8.77;6.23;;;12.40;99.90;;;;;;4962719;29;20440;-46
2022/01/01 03:15:20;;;;;;;12.73;7.03;;;12.40;99.90;;;;;;4962018;29;20452;-47
2022/01/01 03:17:49;;;;;;;11.17;6.90;;;12.40;99.90;;;;;;4961015;29;20464;-47
2022/01/01 03:20:15;;;;;;;13.40;7.53;;;12.40;99.90;;;;;;4961479;29;20913;-44
2022/01/01 03:22:42;;;;;;;9.77;5.97;;;12.40;99.90;;;;;;4961138;29;20480;-50
2022/01/01 03:25:09;;;;;;;10.00;6.50;;;12.50;99.90;;;;;;4960621;29;20440;-46
2022/01/01 03:27:36;;;;;;;7.30;5.00;;;12.50;99.90;;;;;;4961634;28;20503;-51
2022/01/01 03:30:04;;;;;;;9.37;7.13;;;12.50;99.90;;;;;;4961942;29;20857;-52
2022/01/01 03:32:31;;;;;;;8.27;6.03;;;12.50;99.90;;;;;;4961910;29;20452;-51
2022/01/01 03:34:58;;;;;;;9.10;5.30;;;12.50;99.90;;;;;;4961810;29;20495;-51
2022/01/01 03:37:25;;;;;;;4.30;3.57;;;12.50;99.90;;;;;;4961644;29;20456;-52
2022/01/01 03:39:51;;;;;;;10.10;6.93;;;12.50;99.90;;;;;;4961101;28;20951;-47
2022/01/01 03:42:18;;;;;;;15.57;5.73;;;12.50;99.90;;;;;;4961126;29;20452;-51
2022/01/01 03:44:45;;;;;;;7.50;5.27;;;12.50;99.90;;;;;;4960241;29;20451;-46
2022/01/01 03:47:13;;;;;;;14.93;6.00;;;12.50;99.90;;;;;;4960574;28;20471;-50
2022/01/01 03:49:40;;;;;;;10.53;6.40;;;12.50;99.90;;;;;;4960621;29;20866;-50
2022/01/01 03:52:08;;;;;;;17.50;5.70;;;12.50;99.90;;;;;;4960591;29;20780;-49
2022/01/01 03:54:35;;;;;;;8.07;5.97;;;12.60;99.90;;;;;;4957896;29;20522;-53
2022/01/01 03:57:02;;;;;;;7.73;6.00;;;12.50;99.90;;;;;;4959354;29;20470;-53
2022/01/01 03:59:29;;;;;;;12.33;6.80;;;12.60;99.90;;;;;;4960117;29;20475;-49
2022/01/01 04:01:55;;;;;;;10.20;5.40;;;12.50;99.90;;;;;;4959533;29;20474;-54
2022/01/01 04:04:25;;;;;;;9.23;5.70;;;12.50;99.90;;;;;;4959653;29;20531;-54
2022/01/01 04:06:51;;;;;;;8.83;5.90;;;12.50;99.90;;;;;;4959775;29;20448;-48
2022/01/01 04:09:18;;;;;;;6.13;5.13;;;12.50;99.90;;;;;;4959796;28;20487;-52
2022/01/01 04:11:46;;;;;;;12.73;7.20;;;12.60;99.90;;;;;;4960057;28;20476;-49
2022/01/01 04:14:15;;;;;;;11.10;5.43;;;12.50;99.90;;;;;;4959778;29;20460;-52
2022/01/01 04:16:42;;;;;;;8.13;6.43;;;12.60;99.90;;;;;;4960212;29;20460;-52
2022/01/01 04:19:09;;;;;;;16.10;6.23;;;12.50;99.90;;;;;;4959687;29;20454;-53
2022/01/01 04:21:37;;;;;;;20.53;10.13;;;12.50;99.90;;;;;;4959624;29;20448;-51
2022/01/01 04:24:04;;;;;;;10.23;5.70;;;12.50;99.90;;;;;;4959511;29;20488;-49
2022/01/01 04:26:33;;;;;;;12.57;6.67;;;12.50;99.90;;;;;;4960268;29;20507;-45
2022/01/01 04:29:00;;;;;;;8.80;5.53;;;12.50;99.90;;;;;;4959415;29;20479;-51
2022/01/01 04:31:27;;;;;;;7.57;5.47;;;12.50;99.90;;;;;;4959602;29;20460;-50
2022/01/01 04:33:53;;;;;;;10.73;6.33;;;12.50;99.90;;;;;;4960062;29;20471;-49
2022/01/01 04:36:22;;;;;;;11.03;5.73;;;12.50;99.90;;;;;;4957833;29;20993;-49
2022/01/01 04:38:50;;;;;;;13.27;6.50;;;12.50;99.90;;;;;;4957295;28;20460;-47
2022/01/01 04:41:18;;;;;;;8.00;5.43;;;12.50;99.90;;;;;;4957866;29;20980;-49
2022/01/01 04:43:46;;;;;;;6.63;4.90;;;12.50;99.90;;;;;;4957629;29;20901;-49
2022/01/01 04:46:13;;;;;;;16.37;8.03;;;12.50;99.90;;;;;;4957512;29;20561;-51
2022/01/01 04:48:40;;;;;;;11.13;6.40;;;12.50;99.90;;;;;;4957192;29;20504;-49
2022/01/01 04:51:08;;;;;;;13.37;6.90;;;12.50;99.90;;;;;;4957087;29;20769;-46
2022/01/01 04:53:35;;;;;;;12.33;6.27;;;12.50;99.90;;;;;;4956858;28;20478;-47
2022/01/01 04:56:06;;;;;;;7.43;6.03;;;12.50;99.90;;;;;;4957285;29;20459;-48
2022/01/01 04:58:34;;;;;;;11.40;5.90;;;12.50;99.90;;;;;;4958801;28;20443;-53
2022/01/01 05:01:00;;;;;;;14.30;6.40;;;12.60;99.90;;;;;;4960947;29;20540;-47
2022/01/01 05:03:27;;;;;;;11.30;6.70;;;12.50;99.90;;;;;;4960620;29;20476;-52
2022/01/01 05:05:54;;;;;;;11.47;6.73;;;12.60;99.90;;;;;;4960693;29;20483;-47
2022/01/01 05:08:21;;;;;;;23.33;6.30;;;12.60;99.90;;;;;;4961020;29;20437;-51
2022/01/01 05:10:47;;;;;;;17.80;6.80;;;12.60;99.90;;;;;;4960657;29;20979;-51
2022/01/01 05:13:16;;;;;;;9.30;4.13;;;12.60;99.90;;;;;;4960766;29;20535;-47
2022/01/01 05:15:43;;;;;;;9.57;6.23;;;12.50;99.90;;;;;;4960653;29;20453;-45
2022/01/01 05:18:10;;;;;;;12.40;7.43;;;12.50;99.90;;;;;;4960776;29;20480;-48
2022/01/01 05:20:36;;;;;;;12.00;6.67;;;12.50;99.90;;;;;;4960770;29;20424;-50
2022/01/01 05:23:03;;;;;;;12.43;6.40;;;12.50;99.90;;;;;;4960799;29;20452;-50
2022/01/01 05:25:30;;;;;;;11.93;8.37;;;12.50;99.90;;;;;;4960350;29;20485;-51
2022/01/01 05:27:57;;;;;;;9.50;6.10;;;12.50;99.90;;;;;;4960257;29;20448;-51
2022/01/01 05:30:25;;;;;;;13.17;7.47;;;12.50;99.90;;;;;;4960086;28;20500;-48
2022/01/01 05:32:51;;;;;;;10.30;6.17;;;12.50;99.90;;;;;;4960383;29;20440;-48
2022/01/01 05:35:18;;;;;;;8.43;5.70;;;12.50;99.90;;;;;;4960204;29;20472;-56
2022/01/01 05:37:45;;;;;;;12.60;7.50;;;12.50;99.90;;;;;;4960960;29;20538;-46
2022/01/01 05:40:12;;;;;;;10.43;6.90;;;12.50;99.90;;;;;;4960909;28;20508;-50
2022/01/01 05:42:39;;;;;;;17.47;8.63;;;12.50;99.90;;;;;;4961329;28;20479;-51
2022/01/01 05:45:06;;;;;;;13.57;6.83;;;12.50;99.90;;;;;;4961454;29;20447;-52
2022/01/01 05:47:34;;;;;;;13.00;7.60;;;12.50;99.90;;;;;;4961007;29;20483;-50
2022/01/01 05:50:01;;;;;;;21.63;6.40;;;12.50;99.90;;;;;;4961261;29;20471;-53
2022/01/01 05:52:28;;;;;;;11.83;6.37;;;12.60;99.90;;;;;;4960837;29;20517;-47
2022/01/01 05:54:55;;;;;;;13.40;6.97;;;12.60;99.90;;;;;;4960017;29;20465;-49
2022/01/01 05:57:21;;;;;;;11.53;6.47;;;12.60;99.90;;;;;;4959980;29;20453;-47
2022/01/01 05:59:48;;;;;;;11.07;6.20;;;12.60;99.90;;;;;;4959776;29;20523;-53
2022/01/01 06:02:14;;;;;;;11.80;7.50;;;12.50;99.90;;;;;;4959874;29;20460;-50
2022/01/01 06:04:43;;;;;;;13.03;7.23;;;12.50;99.90;;;;;;4959363;29;21008;-50
2022/01/01 06:07:10;;;;;;;16.17;6.33;;;12.50;99.90;;;;;;4959936;29;20539;-46
2022/01/01 06:09:37;;;;;;;13.60;7.80;;;12.60;99.90;;;;;;4958585;28;20586;-46
2022/01/01 06:12:04;;;;;;;17.47;7.10;;;12.50;99.90;;;;;;4959719;29;20452;-53
2022/01/01 06:14:31;;;;;;;15.70;7.70;;;12.50;99.90;;;;;;4959502;28;20837;-49
2022/01/01 06:16:58;;;;;;;12.83;7.90;;;12.50;99.90;;;;;;4959467;29;20464;-51
2022/01/01 06:19:25;;;;;;;19.23;6.80;;;12.60;99.90;;;;;;4959406;29;20511;-51
2022/01/01 06:21:53;;;;;;;13.30;7.13;;;12.60;99.90;;;;;;4959169;29;20456;-47
2022/01/01 06:24:19;;;;;;;10.77;6.87;;;12.60;99.90;;;;;;4959346;29;20507;-48
2022/01/01 06:26:46;;;;;;;10.83;7.57;;;12.50;99.90;;;;;;4959683;29;20456;-49
2022/01/01 06:29:13;;;;;;;17.23;7.97;;;12.50;99.90;;;;;;4958813;28;20990;-49
2022/01/01 06:31:39;;;;;;;17.97;7.70;;;12.50;99.90;;;;;;4958975;29;20480;-48
2022/01/01 06:34:08;;;;;;;15.53;7.03;;;12.50;99.90;;;;;;4959236;29;20452;-51
2022/01/01 06:36:34;;;;;;;16.83;8.17;;;12.60;99.90;;;;;;4959243;29;20854;-53
2022/01/01 06:39:03;;;;;;;11.47;7.10;;;12.50;99.90;;;;;;4959159;29;20476;-48
2022/01/01 06:41:30;;;;;;;11.93;7.03;;;12.50;99.90;;;;;;4958905;29;20548;-53
2022/01/01 06:43:57;;;;;;;16.23;6.80;;;12.50;99.90;;;;;;4958740;29;20473;-51
2022/01/01 06:46:23;;;;;;;19.57;6.73;;;12.50;99.90;;;;;;4958489;29;20511;-52
2022/01/01 06:48:50;;;;;;;14.23;6.80;;;12.50;99.90;;;;;;4958993;29;20880;-48
2022/01/01 06:51:17;;;;;;;10.27;7.00;;;12.50;99.90;;;;;;4958764;29;20488;-49
2022/01/01 06:53:44;;;;;;;12.90;7.80;;;12.50;99.90;;;;;;4958833;29;20523;-50
2022/01/01 06:56:12;;;;;;;12.17;6.07;;;12.60;99.90;;;;;;4958809;29;20476;-49
2022/01/01 06:58:39;;;;;;;19.00;7.47;;;12.60;99.90;;;;;;4958784;28;20464;-48
2022/01/01 07:01:06;;;;;;;10.93;6.53;;;12.60;99.90;;;;;;4958603;29;20928;-51
2022/01/01 07:03:35;;;;;;;10.13;7.10;;;12.60;99.90;;;;;;4958814;29;20802;-51
2022/01/01 07:06:02;;;;;;;18.40;7.90;;;12.50;99.90;;;;;;4958444;29;20474;-54
2022/01/01 07:08:29;;;;;;;16.40;7.17;;;12.60;99.90;;;;;;4958307;29;20480;-50
2022/01/01 07:10:56;;;;;;;15.60;7.03;;;12.60;99.90;;;;;;4958061;29;20480;-51
2022/01/01 07:13:25;;;;;;;15.37;7.87;;;12.60;99.90;;;;;;4958240;29;20460;-52
2022/01/01 07:15:51;;;;;;;19.07;8.53;;;12.60;99.90;;;;;;4958413;28;20547;-48
2022/01/01 07:18:18;;;;;;;9.90;6.70;;;12.60;99.90;;;;;;4958497;29;20448;-46
2022/01/01 07:20:45;;;;;;;12.27;5.97;;;12.60;99.90;;;;;;4957891;28;20480;-52
2022/01/01 07:23:12;;;;;;;19.07;9.93;;;12.60;99.90;;;;;;4958620;29;20551;-48
2022/01/01 07:25:39;;;;;;;19.93;8.33;;;12.60;99.90;;;;;;4958511;29;20782;-50
2022/01/01 07:28:05;;;;;;;15.13;7.87;;;12.50;99.90;;;;;;4958296;29;20937;-48
2022/01/01 07:30:33;;;;;;;12.40;6.53;;;12.50;99.90;;;;;;4958278;29;20495;-52
2022/01/01 07:33:00;;;;;;;23.80;7.40;;;12.60;99.90;;;;;;4958335;28;20480;-49
2022/01/01 07:35:27;;;;;;;10.40;5.47;;;12.60;99.90;;;;;;4957930;29;20459;-45
2022/01/01 07:37:54;;;;;;;14.23;6.30;;;12.60;99.90;;;;;;4958104;29;20451;-45
2022/01/01 07:40:21;;;;;;;13.10;7.53;;;12.60;99.90;;;;;;4957784;29;20440;-47
2022/01/01 07:42:48;;;;;;;12.93;7.13;;;12.60;99.90;;;;;;4958044;29;20483;-47
2022/01/01 07:45:15;;;;;;;12.37;6.13;;;12.60;99.90;;;;;;4957771;29;20480;-49
2022/01/01 07:47:43;;;;;;;10.93;5.93;;;12.60;99.90;;;;;;4957999;29;20489;-50
2022/01/01 07:50:10;;;;;;;12.43;6.93;;;12.50;99.90;;;;;;4958100;28;20492;-50
2022/01/01 07:52:37;;;;;;;13.60;7.10;;;12.50;99.90;;;;;;4959109;29;20551;-50
2022/01/01 07:55:04;;;;;;;11.20;6.53;;;12.50;99.90;;;;;;4958931;29;20464;-52
2022/01/01 07:57:31;;;;;;;18.53;6.97;;;12.50;99.90;;;;;;4958728;28;20448;-47
2022/01/01 07:59:57;;;;;;;13.40;6.97;;;12.60;99.90;;;;;;4958322;29;20515;-54
2022/01/01 08:02:24;;;;;;;10.90;6.77;;;12.70;99.90;;;;;;4958935;29;20484;-54
2022/01/01 08:04:52;;;;;;;16.77;8.17;;;12.70;99.90;;;;;;4959042;29;20463;-53
2022/01/01 08:07:19;;;;;;;14.07;7.57;;;12.80;99.90;;;;;;4957862;29;20472;-54
2022/01/01 08:09:45;;;;;;;15.83;7.70;;;12.80;99.90;;;;;;4957798;29;20452;-49
2022/01/01 08:12:12;;;;;;;19.60;8.37;;;12.90;99.90;;;;;;4957654;29;20468;-49
2022/01/01 08:14:39;;;;;;;11.40;6.40;;;12.90;99.90;;;;;;4957709;29;20452;-48
2022/01/01 08:17:06;;;;;;;14.97;6.00;;;12.90;99.90;;;;;;4957496;29;20584;-52
2022/01/01 08:19:33;;;;;;;9.33;6.83;;;12.90;99.90;;;;;;4957734;28;20448;-53
2022/01/01 08:22:02;;;;;;;19.40;6.90;;;12.90;99.90;;;;;;4957591;29;20468;-54
2022/01/01 08:24:28;;;;;;;13.53;6.20;;;12.90;99.90;;;;;;4956723;28;20476;-49
2022/01/01 08:26:55;;;;;;;17.80;7.97;;;12.90;99.90;;;;;;4940077;28;20456;-53
2022/01/01 08:29:22;;;;;;;11.30;7.20;;;12.90;99.90;;;;;;4952989;29;20472;-50
2022/01/01 08:31:50;;;;;;;14.27;6.77;;;12.90;99.90;;;;;;4947383;29;20768;-51
2022/01/01 08:34:18;;;;;;;14.30;6.93;;;12.80;99.90;;;;;;4946434;29;20449;-48
2022/01/01 08:36:44;;;;;;;18.13;6.20;;;12.80;99.90;;;;;;4950215;29;20511;-53
2022/01/01 08:39:13;;;;;;;18.70;6.30;;;12.80;99.90;;;;;;4953163;29;20452;-53
2022/01/01 08:41:39;;;;;;;12.93;6.97;;;12.80;99.90;;;;;;4951327;29;20478;-51
2022/01/01 08:44:06;;;;;;;16.20;6.80;;;12.70;99.90;;;;;;4942344;29;20520;-51
2022/01/01 08:46:33;;;;;;;11.93;6.93;;;12.70;99.90;;;;;;4944634;29;22075;-52
2022/01/01 08:49:00;;;;;;;17.20;8.07;;;12.80;99.90;;;;;;4953910;28;20448;-52
2022/01/01 08:51:28;;;;;;;13.90;6.50;;;12.80;99.90;;;;;;4949379;29;20515;-51
2022/01/01 08:53:55;;;;;;;13.90;8.30;;;12.80;99.90;;;;;;4950799;29;20461;-51
2022/01/01 08:56:22;;;;;;;13.23;7.40;;;12.80;99.90;;;;;;4949230;29;20480;-48
2022/01/01 08:58:49;;;;;;;9.00;6.70;;;12.80;99.90;;;;;;4952805;29;20483;-53
2022/01/01 09:01:16;;;;;;;19.70;6.50;;;12.80;99.90;;;;;;4963057;29;20527;-52
2022/01/01 09:03:43;;;;;;;13.87;7.10;;;12.80;99.90;;;;;;4952672;29;20481;-48
2022/01/01 09:06:11;;;;;;;12.27;6.60;;;12.90;99.90;;;;;;4955215;29;20475;-51
2022/01/01 09:08:38;;;;;;;10.73;5.97;;;12.90;99.90;;;;;;4975284;29;20452;-42
2022/01/01 09:11:06;;;;;;;11.67;6.10;;;12.90;99.90;;;;;;4976288;29;20542;-48
2022/01/01 09:13:34;;;;;;;22.93;6.20;;;12.90;99.90;;;;;;4975999;29;20451;-49
2022/01/01 09:16:01;;;;;;;15.53;6.53;;;12.80;99.90;;;;;;4959948;29;20473;-49
2022/01/01 09:18:28;;;;;;;15.83;6.80;;;12.80;99.90;;;;;;4962087;29;20447;-43
2022/01/01 09:20:54;;;;;;;18.20;9.90;;;12.80;99.90;;;;;;4975612;29;20478;-51
2022/01/01 09:23:21;;;;;;;14.53;7.50;;;12.80;99.90;;;;;;4974521;29;20452;-51
2022/01/01 09:25:48;;;;;;;10.20;6.10;;;12.90;99.90;;;;;;4961216;28;20460;-52
2022/01/01 09:28:14;;;;;;;13.53;6.87;;;12.90;99.90;;;;;;4967174;29;20448;-48
2022/01/01 09:30:43;;;;;;;22.03;7.20;;;12.90;99.90;;;;;;4956989;29;20481;-52
2022/01/01 09:33:12;;;;;;;18.60;6.43;;;12.90;99.90;;;;;;4950834;29;20485;-57
2022/01/01 09:35:38;;;;;;;12.77;6.90;;;12.90;99.90;;;;;;4951079;29;20457;-54
2022/01/01 09:38:05;;;;;;;13.03;7.80;;;12.90;99.90;;;;;;4959303;28;20472;-52
2022/01/01 09:40:33;;;;;;;18.50;8.47;;;12.90;99.90;;;;;;4967766;29;20440;-53
2022/01/01 09:43:00;;;;;;;20.53;7.93;;;12.90;99.90;;;;;;4960652;29;20461;-51
2022/01/01 09:45:27;;;;;;;21.70;9.40;;;12.90;99.90;;;;;;4963520;28;20483;-56
2022/01/01 09:47:56;;;;;;;17.40;7.60;;;12.90;99.90;;;;;;4959284;28;20460;-55
2022/01/01 09:50:23;;;;;;;17.13;7.20;;;13.00;99.90;;;;;;4963284;29;20480;-51
2022/01/01 09:52:49;;;;;;;13.23;5.80;;;12.90;99.90;;;;;;4948142;29;20499;-54
2022/01/01 09:55:16;;;;;;;15.33;7.70;;;12.90;99.90;;;;;;4963378;28;20472;-55
2022/01/01 09:57:43;;;;;;;11.63;7.57;;;12.90;99.90;;;;;;4963537;29;20464;-56
2022/01/01 10:00:11;;;;;;;27.03;7.90;;;12.90;99.90;;;;;;4963527;29;20459;-54
2022/01/01 10:02:37;;;;;;;11.83;6.47;;;12.90;99.90;;;;;;4952765;29;20452;-55
2022/01/01 10:05:07;;;;;;;12.87;7.63;;;12.80;99.90;;;;;;4952719;29;20472;-56
2022/01/01 10:07:34;;;;;;;20.83;9.67;;;12.80;99.90;;;;;;4967557;29;20448;-57
2022/01/01 10:10:19;;;;;;;18.63;7.73;;;12.90;99.90;;;;;;4966692;29;21084;-54
2022/01/01 10:12:46;;;;;;;33.87;9.47;;;12.80;99.90;;;;;;4970145;29;20448;-55
2022/01/01 10:15:13;;;;;;;14.17;7.47;;;12.90;99.90;;;;;;4969156;29;20535;-55
2022/01/01 10:17:40;;;;;;;15.47;8.20;;;12.90;99.90;;;;;;4963382;29;20456;-56
2022/01/01 10:20:10;;;;;;;15.33;8.00;;;12.90;99.90;;;;;;4962440;29;20456;-54
2022/01/01 10:22:38;;;;;;;14.13;8.43;;;12.90;99.90;;;;;;4964102;28;20488;-54
2022/01/01 10:27:54;;;;;;;23.20;8.43;;;12.90;99.90;;;;;;4954914;29;20543;-57
2022/01/01 10:30:24;;;;;;;21.93;10.33;;;13.10;99.90;;;;;;4963330;29;20466;-58
2022/01/01 10:33:06;;;;;;;13.47;7.30;;;13.30;99.90;;;;;;4952695;29;20875;-59
2022/01/01 10:35:42;;;;;;;16.77;8.27;;;13.30;99.90;;;;;;4953690;29;20499;-59
2022/01/01 10:38:14;;;;;;;11.60;6.80;;;13.20;99.90;;;;;;4962575;29;20534;-59
2022/01/01 10:40:42;;;;;;;18.37;8.40;;;13.20;99.90;;;;;;4952671;28;20516;-59
2022/01/01 10:43:10;;;;;;;21.47;8.50;;;13.20;99.90;;;;;;4943584;29;20455;-59
2022/01/01 10:45:40;;;;;;;16.60;8.10;;;13.10;99.90;;;;;;4960742;29;20574;-58
2022/01/01 10:48:16;;;;;;;13.70;7.90;;;13.10;99.90;;;;;;4954683;29;20477;-58
2022/01/01 10:50:44;;;;;;;17.73;8.87;;;13.00;99.90;;;;;;4944080;29;20516;-58
2022/01/01 10:53:12;;;;;;;11.73;7.60;;;13.00;99.90;;;;;;4946228;29;20472;-57
2022/01/01 10:55:43;;;;;;;17.90;7.83;;;13.00;99.90;;;;;;4953959;29;20481;-58
2022/01/01 10:58:16;;;;;;;15.10;7.97;;;13.00;99.90;;;;;;4943689;29;20453;-58
2022/01/01 11:00:43;;;;;;;13.90;8.60;;;13.10;99.90;;;;;;4942939;29;20482;-59
2022/01/01 11:03:15;;;;;;;17.00;8.80;;;13.10;99.90;;;;;;4943361;29;20507;-56
2022/01/01 11:05:44;;;;;;;29.17;8.13;;;13.10;99.90;;;;;;4961829;29;20480;-58
2022/01/01 11:08:12;;;;;;;14.50;7.40;;;13.30;99.90;;;;;;4960824;29;20523;-56
2022/01/01 11:10:40;;;;;;;16.30;8.10;;;13.30;99.90;;;;;;4942578;29;20548;-58
2022/01/01 11:13:09;;;;;;;18.70;8.77;;;13.40;99.90;;;;;;4942632;29;20524;-58
2022/01/01 11:15:36;;;;;;;15.97;8.17;;;13.50;99.90;;;;;;4943056;29;20872;-58
2022/01/01 11:18:03;;;;;;;15.77;9.40;;;13.50;99.90;;;;;;4942977;29;20532;-56
2022/01/01 11:20:33;;;;;;;16.30;7.57;;;13.50;99.90;;;;;;4942352;29;20472;-58
2022/01/01 11:23:07;;;;;;;16.73;7.53;;;13.50;99.90;;;;;;4942255;29;20515;-58
2022/01/01 11:25:35;;;;;;;19.53;7.90;;;13.60;99.90;;;;;;4941734;29;20952;-58
2022/01/01 11:28:03;;;;;;;23.77;8.90;;;13.60;99.90;;;;;;4942254;29;20469;-58
2022/01/01 11:30:31;;;;;;;8.93;6.87;;;13.60;99.90;;;;;;4942106;29;20536;-59
2022/01/01 11:33:04;;;;;;;20.47;8.33;;;13.60;99.90;;;;;;4942170;29;20504;-58
2022/01/01 11:35:32;;;;;;;13.37;7.93;;;13.60;99.90;;;;;;4941929;29;20445;-58
2022/01/01 11:38:04;;;;;;;19.33;8.20;;;13.50;99.90;;;;;;4941838;29;20449;-57
2022/01/01 11:40:40;;;;;;;30.20;7.97;;;13.50;99.90;;;;;;4941736;29;20875;-58
2022/01/01 11:43:06;;;;;;;18.13;7.63;;;13.50;99.90;;;;;;4942113;29;20441;-58
2022/01/01 11:45:44;;;;;;;19.23;7.17;;;13.60;99.90;;;;;;4941644;29;20449;-58
2022/01/01 11:48:33;;;;;;;12.33;6.47;;;13.60;99.90;;;;;;4941450;29;20552;-57
2022/01/01 11:51:25;;;;;;;15.80;7.10;;;13.70;99.90;;;;;;4936233;29;20474;-56
2022/01/01 11:54:11;;;;;;;17.00;7.27;;;13.70;99.90;;;;;;4941196;29;20433;-59
2022/01/01 11:57:09;;;;;;;10.23;7.03;;;13.70;99.90;;;;;;4941525;29;20487;-59
2022/01/01 11:59:47;;;;;;;24.23;7.40;;;13.70;99.90;;;;;;4941310;29;20500;-59
2022/01/01 12:02:44;;;;;;;14.10;6.83;;;13.60;99.90;;;;;;4942369;29;20465;-56
2022/01/01 12:05:23;;;;;;;13.93;8.00;;;13.70;99.90;;;;;;4942653;29;20480;-58
2022/01/01 12:07:53;;;;;;;12.63;6.30;;;13.70;99.90;;;;;;4941618;29;20488;-58
2022/01/01 12:10:25;;;;;;;13.83;6.73;;;13.80;99.90;;;;;;4941226;29;20452;-57
2022/01/01 12:12:54;;;;;;;13.73;7.97;;;13.80;99.90;;;;;;4941923;29;20556;-56
2022/01/01 12:15:24;;;;;;;10.80;6.40;;;13.70;99.90;;;;;;4942016;29;20457;-58
2022/01/01 12:17:53;;;;;;;15.23;5.60;;;13.80;99.90;;;;;;4941634;29;20500;-57
2022/01/01 12:20:22;;;;;;;17.80;7.47;;;13.70;99.90;;;;;;4941111;29;20497;-57
2022/01/01 12:22:51;;;;;;;22.63;8.97;;;13.80;99.90;;;;;;4941570;29;20491;-53
2022/01/01 12:25:18;;;;;;;18.03;8.90;;;13.70;99.90;;;;;;4940896;29;20449;-53
2022/01/01 12:27:50;;;;;;;10.77;6.13;;;13.70;99.90;;;;;;4940850;29;20508;-58
2022/01/01 12:30:31;;;;;;;11.73;7.77;;;13.80;99.90;;;;;;4941344;29;20441;-57
2022/01/01 12:32:58;;;;;;;7.50;4.40;;;13.80;99.90;;;;;;4940618;29;20472;-57
2022/01/01 12:35:39;;;;;;;18.90;9.47;;;13.80;99.90;;;;;;4941016;29;20503;-57
2022/01/01 12:38:07;;;;;;;25.17;8.70;;;13.70;99.90;;;;;;4941483;29;20493;-57
2022/01/01 12:40:35;;;;;;;16.30;7.70;;;13.80;99.90;;;;;;4941338;29;20545;-58
2022/01/01 12:43:10;;;;;;;17.60;6.63;;;13.80;99.90;;;;;;4941220;29;20453;-54
2022/01/01 12:45:38;;;;;;;17.43;7.90;;;13.80;99.90;;;;;;4941507;29;20477;-57
2022/01/01 12:48:06;;;;;;;21.90;7.87;;;13.80;99.90;;;;;;4940854;29;20453;-57